TimeCDT,TemperatureF,Dew PointF,Humidity,Sea Level PressureIn,VisibilityMPH,Wind Direction,Wind SpeedMPH,Gust SpeedMPH,PrecipitationIn,Events,Conditions,WindDirDegrees,DateUTC
12:15 AM,81.7,63.7,54,30.08,10.0,East,4.6,-,N/A,,Clear,100,2013-09-06 05:15:00
12:35 AM,81.5,63.1,54,30.08,10.0,East,3.5,-,N/A,,Clear,90,2013-09-06 05:35:00
12:55 AM,80.4,62.8,55,30.08,10.0,East,4.6,-,N/A,,Clear,100,2013-09-06 05:55:00
1:15 AM,79.5,62.6,56,30.09,10.0,ESE,5.8,-,N/A,,Clear,110,2013-09-06 06:15:00
1:35 AM,80.1,60.8,52,30.09,10.0,ESE,6.9,-,N/A,,Clear,110,2013-09-06 06:35:00
1:55 AM,79.2,60.8,53,30.09,10.0,ESE,5.8,-,N/A,,Clear,110,2013-09-06 06:55:00
2:15 AM,78.8,60.8,54,30.08,10.0,East,6.9,-,N/A,,Clear,100,2013-09-06 07:15:00
2:35 AM,78.8,60.8,54,30.08,10.0,East,5.8,-,N/A,,Clear,100,2013-09-06 07:35:00
2:55 AM,77.5,61.0,57,30.08,10.0,ESE,5.8,-,N/A,,Clear,110,2013-09-06 07:55:00
3:15 AM,76.6,61.3,59,30.08,10.0,ESE,5.8,-,N/A,,Clear,110,2013-09-06 08:15:00
3:35 AM,76.3,61.7,60,30.08,10.0,East,4.6,-,N/A,,Clear,100,2013-09-06 08:35:00
3:55 AM,75.9,62.2,62,30.08,10.0,ESE,5.8,-,N/A,,Clear,110,2013-09-06 08:55:00
4:15 AM,75.6,62.6,64,30.07,10.0,ESE,6.9,-,N/A,,Clear,110,2013-09-06 09:15:00
4:35 AM,75.0,63.0,66,30.07,10.0,ESE,4.6,-,N/A,,Clear,110,2013-09-06 09:35:00
4:55 AM,74.7,63.1,67,30.07,10.0,ESE,4.6,-,N/A,,Clear,110,2013-09-06 09:55:00
5:15 AM,73.8,63.5,70,30.08,10.0,ESE,4.6,-,N/A,,Clear,110,2013-09-06 10:15:00
5:35 AM,73.4,63.7,71,30.08,10.0,East,4.6,-,N/A,,Clear,100,2013-09-06 10:35:00
5:55 AM,73.8,64.4,72,30.08,10.0,East,3.5,-,N/A,,Clear,80,2013-09-06 10:55:00
6:15 AM,74.3,64.8,72,30.09,10.0,Calm,Calm,-,N/A,,Clear,0,2013-09-06 11:15:00
6:35 AM,73.2,65.3,76,30.09,10.0,East,3.5,-,N/A,,Clear,80,2013-09-06 11:35:00
6:55 AM,73.8,65.7,76,30.10,10.0,East,3.5,-,N/A,,Clear,80,2013-09-06 11:55:00
7:15 AM,73.9,65.8,76,30.10,10.0,East,3.5,-,N/A,,Clear,100,2013-09-06 12:15:00
7:35 AM,73.8,66.2,77,30.10,10.0,East,3.5,-,N/A,,Clear,80,2013-09-06 12:35:00
7:55 AM,75.7,66.4,73,30.10,10.0,East,4.6,-,N/A,,Clear,80,2013-09-06 12:55:00
8:15 AM,77.7,66.0,67,30.11,10.0,ESE,8.1,-,N/A,,Clear,110,2013-09-06 13:15:00
8:35 AM,79.3,66.4,64,30.11,10.0,ESE,5.8,-,N/A,,Clear,110,2013-09-06 13:35:00
8:55 AM,80.6,66.2,61,30.11,10.0,East,6.9,-,N/A,,Clear,100,2013-09-06 13:55:00
9:15 AM,82.6,66.6,58,30.11,10.0,ESE,6.9,-,N/A,,Clear,120,2013-09-06 14:15:00
9:35 AM,84.2,66.7,56,30.11,10.0,SE,8.1,-,N/A,,Clear,130,2013-09-06 14:35:00
9:55 AM,85.5,67.1,54,30.11,10.0,ESE,6.9,-,N/A,,Clear,120,2013-09-06 14:55:00
10:15 AM,86.4,66.9,52,30.12,10.0,SE,6.9,-,N/A,,Clear,130,2013-09-06 15:15:00
10:35 AM,87.6,67.1,50,30.12,10.0,ESE,6.9,-,N/A,,Clear,120,2013-09-06 15:35:00
10:55 AM,89.6,66.6,46,30.11,10.0,East,3.5,-,N/A,,Clear,90,2013-09-06 15:55:00
11:15 AM,91.4,66.6,44,30.11,10.0,SSE,5.8,-,N/A,,Clear,150,2013-09-06 16:15:00
11:35 AM,91.9,66.0,42,30.11,10.0,SE,5.8,-,N/A,,Clear,130,2013-09-06 16:35:00
11:55 AM,93.0,66.6,42,30.10,10.0,ESE,4.6,-,N/A,,Clear,120,2013-09-06 16:55:00
12:15 PM,94.5,66.2,39,30.10,10.0,SE,4.6,-,N/A,,Clear,130,2013-09-06 17:15:00
12:35 PM,96.4,67.3,38,30.09,10.0,East,4.6,-,N/A,,Clear,80,2013-09-06 17:35:00
12:55 PM,96.3,66.7,38,30.08,10.0,ESE,3.5,-,N/A,,Clear,120,2013-09-06 17:55:00
1:15 PM,97.3,65.7,35,30.07,10.0,SE,4.6,-,N/A,,Mostly Cloudy,140,2013-09-06 18:15:00
1:35 PM,97.5,65.3,35,30.06,10.0,Calm,Calm,-,N/A,,Mostly Cloudy,0,2013-09-06 18:35:00
1:55 PM,100.2,64.9,31,30.05,10.0,SE,4.6,-,N/A,,Scattered Clouds,130,2013-09-06 18:55:00
2:15 PM,99.0,63.5,31,30.04,10.0,ESE,6.9,-,N/A,,Clear,110,2013-09-06 19:15:00
2:35 PM,100.9,63.0,29,30.04,10.0,Calm,Calm,-,N/A,,Clear,0,2013-09-06 19:35:00
2:55 PM,100.8,62.1,28,30.03,10.0,WSW,4.6,-,N/A,,Scattered Clouds,240,2013-09-06 19:55:00
3:15 PM,102.2,62.8,27,30.01,10.0,ENE,4.6,-,N/A,,Scattered Clouds,70,2013-09-06 20:15:00
3:35 PM,101.5,61.7,27,30.01,10.0,Calm,Calm,-,N/A,,Scattered Clouds,0,2013-09-06 20:35:00
3:55 PM,101.7,61.3,27,30.00,10.0,Calm,Calm,-,N/A,,Scattered Clouds,0,2013-09-06 20:55:00
4:15 PM,101.1,60.8,26,29.99,10.0,Calm,Calm,-,N/A,,Clear,0,2013-09-06 21:15:00
4:35 PM,101.1,60.4,26,29.98,10.0,NE,4.6,-,N/A,,Clear,50,2013-09-06 21:35:00
4:55 PM,101.7,60.8,26,29.98,10.0,East,6.9,-,N/A,,Clear,100,2013-09-06 21:55:00
5:15 PM,101.5,61.0,26,29.97,10.0,East,4.6,-,N/A,,Clear,80,2013-09-06 22:15:00
5:35 PM,100.8,61.5,27,29.97,10.0,SSE,3.5,-,N/A,,Clear,160,2013-09-06 22:35:00
5:55 PM,100.8,61.2,27,29.97,10.0,Calm,Calm,-,N/A,,Clear,0,2013-09-06 22:55:00
6:15 PM,100.2,61.5,28,29.96,10.0,East,4.6,-,N/A,,Clear,90,2013-09-06 23:15:00
6:35 PM,99.0,62.4,30,29.96,10.0,ESE,4.6,-,N/A,,Clear,110,2013-09-06 23:35:00
6:55 PM,98.1,63.3,32,29.97,10.0,East,3.5,-,N/A,,Clear,100,2013-09-06 23:55:00
7:15 PM,95.5,63.3,34,29.97,10.0,SE,4.6,-,N/A,,Clear,140,2013-09-07 00:15:00
7:35 PM,94.3,63.1,36,29.97,10.0,SE,5.8,-,N/A,,Clear,130,2013-09-07 00:35:00
7:55 PM,92.5,63.5,38,29.97,10.0,ESE,4.6,-,N/A,,Clear,120,2013-09-07 00:55:00
8:15 PM,91.4,63.5,39,29.97,10.0,SE,4.6,-,N/A,,Clear,140,2013-09-07 01:15:00
8:35 PM,91.2,63.0,39,29.97,10.0,SE,5.8,-,N/A,,Clear,140,2013-09-07 01:35:00
8:55 PM,91.0,62.2,38,29.98,10.0,SSE,4.6,-,N/A,,Clear,150,2013-09-07 01:55:00
9:15 PM,90.5,62.2,39,29.98,10.0,SSE,4.6,-,N/A,,Clear,160,2013-09-07 02:15:00
9:35 PM,89.8,62.8,40,29.98,10.0,SE,4.6,-,N/A,,Clear,140,2013-09-07 02:35:00
9:55 PM,88.0,63.1,43,29.99,10.0,ESE,5.8,-,N/A,,Clear,120,2013-09-07 02:55:00
10:15 PM,86.7,63.5,46,29.99,10.0,ESE,3.5,-,N/A,,Clear,110,2013-09-07 03:15:00
10:35 PM,85.8,63.7,47,29.99,10.0,East,3.5,-,N/A,,Clear,100,2013-09-07 03:35:00
10:55 PM,83.3,64.4,53,30.00,10.0,ENE,3.5,-,N/A,,Clear,60,2013-09-07 03:55:00
11:15 PM,83.5,66.2,56,29.99,10.0,East,4.6,-,N/A,,Clear,100,2013-09-07 04:15:00
11:35 PM,83.3,66.9,58,29.99,10.0,Calm,Calm,-,N/A,,Clear,0,2013-09-07 04:35:00
11:55 PM,82.0,66.9,60,29.99,10.0,ESE,3.5,-,N/A,,Clear,110,2013-09-07 04:55:00